sensor_id;sensor_type;location;lat;lon;timestamp;pressure;altitude;pressure_sealevel;temperature;humidity
51449;BME280;37520;46.570;14.268;2022-07-21T00:03:56;96012.31;;;17.76;69.21
51449;BME280;37520;46.570;14.268;2022-07-21T00:13:58;96016.13;;;17.64;70.76
51449;BME280;37520;46.570;14.268;2022-07-21T00:24:00;96025.06;;;17.49;69.60
51449;BME280;37520;46.570;14.268;2022-07-21T00:34:04;96020.84;;;17.43;70.20
51449;BME280;37520;46.570;14.268;2022-07-21T00:44:05;96029.69;;;17.33;70.69
51449;BME280;37520;46.570;14.268;2022-07-21T00:54:07;96023.84;;;17.26;72.79
51449;BME280;37520;46.570;14.268;2022-07-21T01:04:08;96014.03;;;17.16;72.68
51449;BME280;37520;46.570;14.268;2022-07-21T01:14:10;96015.97;;;17.05;73.00
51449;BME280;37520;46.570;14.268;2022-07-21T01:24:12;96016.56;;;16.92;73.53
51449;BME280;37520;46.570;14.268;2022-07-21T01:34:14;96008.00;;;16.85;74.92
51449;BME280;37520;46.570;14.268;2022-07-21T01:44:16;96011.50;;;16.75;74.57
51449;BME280;37520;46.570;14.268;2022-07-21T01:54:20;96006.22;;;16.65;74.01
51449;BME280;37520;46.570;14.268;2022-07-21T02:04:22;96001.72;;;16.55;75.86
51449;BME280;37520;46.570;14.268;2022-07-21T02:14:24;96012.66;;;16.48;75.09
51449;BME280;37520;46.570;14.268;2022-07-21T02:24:25;96007.63;;;16.41;76.58
51449;BME280;37520;46.570;14.268;2022-07-21T02:34:27;96011.91;;;16.27;76.06
51449;BME280;37520;46.570;14.268;2022-07-21T02:44:29;96005.81;;;16.21;75.82
51449;BME280;37520;46.570;14.268;2022-07-21T02:54:33;96006.06;;;16.15;76.27
51449;BME280;37520;46.570;14.268;2022-07-21T03:04:34;96018.63;;;16.04;76.26
51449;BME280;37520;46.570;14.268;2022-07-21T03:14:35;96013.00;;;15.95;77.19
51449;BME280;37520;46.570;14.268;2022-07-21T03:24:37;96021.00;;;15.90;76.42
51449;BME280;37520;46.570;14.268;2022-07-21T03:34:41;96031.94;;;15.83;77.63
51449;BME280;37520;46.570;14.268;2022-07-21T03:44:44;96044.22;;;15.84;78.74
51449;BME280;37520;46.570;14.268;2022-07-21T03:54:46;96048.97;;;15.77;78.63
51449;BME280;37520;46.570;14.268;2022-07-21T04:04:47;96046.03;;;15.73;79.39
51449;BME280;37520;46.570;14.268;2022-07-21T04:14:49;96055.91;;;15.78;80.27
51449;BME280;37520;46.570;14.268;2022-07-21T04:24:50;96059.16;;;15.85;79.76
51449;BME280;37520;46.570;14.268;2022-07-21T04:34:52;96062.59;;;15.96;80.39
51449;BME280;37520;46.570;14.268;2022-07-21T04:44:53;96067.94;;;16.11;80.93
51449;BME280;37520;46.570;14.268;2022-07-21T04:54:54;96070.06;;;16.35;79.88
51449;BME280;37520;46.570;14.268;2022-07-21T05:04:55;96075.88;;;16.68;79.93
51449;BME280;37520;46.570;14.268;2022-07-21T05:15:00;96083.47;;;17.21;80.00
51449;BME280;37520;46.570;14.268;2022-07-21T05:25:02;96094.56;;;17.94;76.38
51449;BME280;37520;46.570;14.268;2022-07-21T05:36:16;96092.78;;;19.07;71.90
51449;BME280;37520;46.570;14.268;2022-07-21T05:46:20;96084.69;;;19.94;69.38
51449;BME280;37520;46.570;14.268;2022-07-21T05:56:22;96094.13;;;20.57;64.80
51449;BME280;37520;46.570;14.268;2022-07-21T06:06:29;96093.28;;;20.90;67.40
51449;BME280;37520;46.570;14.268;2022-07-21T06:16:33;96097.81;;;21.73;62.45
51449;BME280;37520;46.570;14.268;2022-07-21T06:26:36;96102.97;;;22.43;61.84
51449;BME280;37520;46.570;14.268;2022-07-21T06:36:43;96092.16;;;22.97;56.95
51449;BME280;37520;46.570;14.268;2022-07-21T06:46:47;96094.72;;;23.86;51.68
51449;BME280;37520;46.570;14.268;2022-07-21T06:56:48;96085.94;;;24.68;51.43
51449;BME280;37520;46.570;14.268;2022-07-21T07:07:02;96090.94;;;25.56;47.39
51449;BME280;37520;46.570;14.268;2022-07-21T07:17:04;96091.56;;;26.25;45.00
51449;BME280;37520;46.570;14.268;2022-07-21T07:27:06;96093.31;;;26.88;44.95
51449;BME280;37520;46.570;14.268;2022-07-21T07:37:08;96073.09;;;27.47;44.40
51449;BME280;37520;46.570;14.268;2022-07-21T07:47:09;96073.03;;;27.85;43.19
51449;BME280;37520;46.570;14.268;2022-07-21T07:57:11;96059.59;;;28.04;40.81
51449;BME280;37520;46.570;14.268;2022-07-21T08:07:12;96064.81;;;28.38;40.56
51449;BME280;37520;46.570;14.268;2022-07-21T08:17:14;96047.75;;;28.85;39.21
51449;BME280;37520;46.570;14.268;2022-07-21T08:27:17;96048.53;;;28.86;38.07
51449;BME280;37520;46.570;14.268;2022-07-21T08:37:19;96053.63;;;29.55;37.46
51449;BME280;37520;46.570;14.268;2022-07-21T08:47:27;96051.59;;;30.07;36.41
51449;BME280;37520;46.570;14.268;2022-07-21T09:08:37;96036.84;;;30.51;33.99
51449;BME280;37520;46.570;14.268;2022-07-21T09:18:50;96033.72;;;31.22;35.81
51449;BME280;37520;46.570;14.268;2022-07-21T09:28:52;96011.16;;;31.25;32.21
51449;BME280;37520;46.570;14.268;2022-07-21T09:38:54;95996.00;;;31.62;30.79
51449;BME280;37520;46.570;14.268;2022-07-21T09:49:01;95988.44;;;31.78;29.48
51449;BME280;37520;46.570;14.268;2022-07-21T09:59:14;95971.19;;;32.50;27.06
51449;BME280;37520;46.570;14.268;2022-07-21T10:09:16;95974.66;;;32.91;29.38
51449;BME280;37520;46.570;14.268;2022-07-21T10:19:28;95961.69;;;33.44;29.59
51449;BME280;37520;46.570;14.268;2022-07-21T10:29:50;95953.16;;;33.60;27.55
51449;BME280;37520;46.570;14.268;2022-07-21T10:40:01;95954.81;;;33.83;30.32
51449;BME280;37520;46.570;14.268;2022-07-21T10:50:06;95941.53;;;34.06;28.34
51449;BME280;37520;46.570;14.268;2022-07-21T11:00:27;95932.97;;;34.55;27.48
51449;BME280;37520;46.570;14.268;2022-07-21T11:10:30;95925.13;;;34.53;28.56
51449;BME280;37520;46.570;14.268;2022-07-21T11:20:33;95919.16;;;35.20;30.37
51449;BME280;37520;46.570;14.268;2022-07-21T11:30:34;95913.66;;;35.16;28.19
51449;BME280;37520;46.570;14.268;2022-07-21T11:40:36;95904.56;;;35.34;27.21
51449;BME280;37520;46.570;14.268;2022-07-21T11:50:37;95892.03;;;35.40;27.62
51449;BME280;37520;46.570;14.268;2022-07-21T12:00:39;95886.53;;;35.33;25.98
51449;BME280;37520;46.570;14.268;2022-07-21T12:10:41;95865.28;;;35.48;25.77
51449;BME280;37520;46.570;14.268;2022-07-21T12:20:43;95840.53;;;35.51;25.56
51449;BME280;37520;46.570;14.268;2022-07-21T12:30:49;95845.09;;;35.76;27.04
51449;BME280;37520;46.570;14.268;2022-07-21T12:40:56;95837.59;;;35.80;26.18
51449;BME280;37520;46.570;14.268;2022-07-21T13:01:13;95805.25;;;35.39;26.25
51449;BME280;37520;46.570;14.268;2022-07-21T13:11:17;95794.69;;;35.38;26.04
51449;BME280;37520;46.570;14.268;2022-07-21T13:21:19;95796.59;;;35.41;26.07
51449;BME280;37520;46.570;14.268;2022-07-21T13:31:20;95779.25;;;35.55;27.10
51449;BME280;37520;46.570;14.268;2022-07-21T13:41:22;95782.50;;;35.39;27.08
51449;BME280;37520;46.570;14.268;2022-07-21T13:51:23;95764.13;;;35.21;27.07
51449;BME280;37520;46.570;14.268;2022-07-21T14:01:25;95755.53;;;35.15;26.55
51449;BME280;37520;46.570;14.268;2022-07-21T14:11:26;95757.13;;;35.13;28.02
51449;BME280;37520;46.570;14.268;2022-07-21T14:21:29;95755.69;;;34.86;27.54
51449;BME280;37520;46.570;14.268;2022-07-21T14:31:30;95744.25;;;34.99;27.02
51449;BME280;37520;46.570;14.268;2022-07-21T14:41:33;95738.38;;;34.86;28.40
51449;BME280;37520;46.570;14.268;2022-07-21T14:51:35;95729.50;;;34.57;27.69
51449;BME280;37520;46.570;14.268;2022-07-21T15:01:40;95729.16;;;34.36;26.96
51449;BME280;37520;46.570;14.268;2022-07-21T15:11:42;95710.78;;;34.04;28.61
51449;BME280;37520;46.570;14.268;2022-07-21T15:21:44;95714.75;;;33.85;27.07
51449;BME280;37520;46.570;14.268;2022-07-21T15:31:46;95701.00;;;33.71;28.02
51449;BME280;37520;46.570;14.268;2022-07-21T15:41:47;95692.00;;;33.52;29.02
51449;BME280;37520;46.570;14.268;2022-07-21T15:51:49;95696.34;;;33.35;30.81
51449;BME280;37520;46.570;14.268;2022-07-21T16:01:50;95693.50;;;33.03;29.13
51449;BME280;37520;46.570;14.268;2022-07-21T16:11:52;95697.31;;;32.73;31.90
51449;BME280;37520;46.570;14.268;2022-07-21T16:21:54;95701.00;;;32.21;34.30
51449;BME280;37520;46.570;14.268;2022-07-21T16:31:56;95702.91;;;31.61;36.28
51449;BME280;37520;46.570;14.268;2022-07-21T16:42:00;95698.00;;;30.95;40.70
51449;BME280;37520;46.570;14.268;2022-07-21T16:52:02;95690.94;;;30.26;40.07
51449;BME280;37520;46.570;14.268;2022-07-21T17:02:03;95702.97;;;29.71;40.64
51449;BME280;37520;46.570;14.268;2022-07-21T17:12:06;95739.66;;;29.31;39.86
51449;BME280;37520;46.570;14.268;2022-07-21T17:22:08;95737.19;;;28.83;43.41
51449;BME280;37520;46.570;14.268;2022-07-21T17:32:09;95723.50;;;28.40;44.04
51449;BME280;37520;46.570;14.268;2022-07-21T17:42:10;95728.94;;;28.05;45.26
51449;BME280;37520;46.570;14.268;2022-07-21T17:52:12;95739.28;;;27.51;47.13
51449;BME280;37520;46.570;14.268;2022-07-21T18:02:13;95766.75;;;27.05;48.79
51449;BME280;37520;46.570;14.268;2022-07-21T18:12:14;95751.41;;;26.68;47.72
51449;BME280;37520;46.570;14.268;2022-07-21T18:22:16;95759.53;;;26.28;49.49
51449;BME280;37520;46.570;14.268;2022-07-21T18:32:17;95775.66;;;25.87;52.28
51449;BME280;37520;46.570;14.268;2022-07-21T18:42:18;95768.06;;;25.55;52.58
51449;BME280;37520;46.570;14.268;2022-07-21T18:52:20;95755.03;;;25.24;52.29
51449;BME280;37520;46.570;14.268;2022-07-21T19:02:22;95793.47;;;24.96;52.22
51449;BME280;37520;46.570;14.268;2022-07-21T19:12:23;95803.19;;;24.76;51.81
51449;BME280;37520;46.570;14.268;2022-07-21T19:22:24;95828.38;;;24.59;52.75
51449;BME280;37520;46.570;14.268;2022-07-21T19:32:26;95864.38;;;24.51;51.00
51449;BME280;37520;46.570;14.268;2022-07-21T19:42:27;95890.78;;;24.45;51.39
51449;BME280;37520;46.570;14.268;2022-07-21T19:52:28;95892.03;;;24.47;50.38
51449;BME280;37520;46.570;14.268;2022-07-21T20:02:29;95916.66;;;24.55;49.75
51449;BME280;37520;46.570;14.268;2022-07-21T20:12:34;95934.25;;;24.61;48.04
51449;BME280;37520;46.570;14.268;2022-07-21T20:22:35;95945.25;;;24.56;50.02
51449;BME280;37520;46.570;14.268;2022-07-21T20:32:36;95955.69;;;24.27;52.33
51449;BME280;37520;46.570;14.268;2022-07-21T20:42:38;95963.38;;;24.08;53.22
51449;BME280;37520;46.570;14.268;2022-07-21T20:52:39;95977.41;;;23.92;54.09
51449;BME280;37520;46.570;14.268;2022-07-21T21:02:41;95977.09;;;23.76;55.92
51449;BME280;37520;46.570;14.268;2022-07-21T21:12:42;96021.38;;;23.58;57.76
51449;BME280;37520;46.570;14.268;2022-07-21T21:22:43;96065.97;;;23.81;53.97
51449;BME280;37520;46.570;14.268;2022-07-21T21:32:44;96050.44;;;23.87;53.28
51449;BME280;37520;46.570;14.268;2022-07-21T21:42:46;95990.25;;;22.67;73.35
51449;BME280;37520;46.570;14.268;2022-07-21T21:52:47;95969.75;;;21.95;79.16
51449;BME280;37520;46.570;14.268;2022-07-21T22:02:48;95971.72;;;21.57;79.98
51449;BME280;37520;46.570;14.268;2022-07-21T22:12:49;95949.16;;;21.08;83.94
51449;BME280;37520;46.570;14.268;2022-07-21T22:22:51;96016.88;;;20.82;85.56
51449;BME280;37520;46.570;14.268;2022-07-21T22:32:52;96051.44;;;20.70;87.72
51449;BME280;37520;46.570;14.268;2022-07-21T22:42:53;96029.56;;;20.62;86.78
51449;BME280;37520;46.570;14.268;2022-07-21T22:52:54;96048.66;;;20.61;89.42
51449;BME280;37520;46.570;14.268;2022-07-21T23:02:56;96074.16;;;20.30;89.86
51449;BME280;37520;46.570;14.268;2022-07-21T23:12:57;96081.88;;;20.18;89.98
51449;BME280;37520;46.570;14.268;2022-07-21T23:22:59;96055.47;;;19.92;91.30
51449;BME280;37520;46.570;14.268;2022-07-21T23:33:00;96059.81;;;19.88;94.48
51449;BME280;37520;46.570;14.268;2022-07-21T23:43:02;96065.91;;;19.94;94.21
51449;BME280;37520;46.570;14.268;2022-07-21T23:53:03;96055.81;;;19.86;94.42
